Terminal Aerodrome Forecast
Issued by NWS

Home | Current Version | Previous Version | Text Only | Print | Product List | Glossary On
Versions: 1 2 3 4 5 6 7 8 9 10 11 12 13
000
FTUS43 KPAH 302141 AAA
TAFOWB
TAF AMD
KOWB 302141Z 3022/0118 27010G16KT P6SM BKN050
     FM010000 26006KT P6SM SCT040
     FM010800 25005KT P6SM SKC=

USA.gov is the U.S. government's official web portal to all federal, state and local government web resources and services.